Time;durP1;ratioP1;P1;durP2;ratioP2;P2;SDS_P1;SDS_P2;PMS_P1;PMS_P2;Temp;Humidity;BMP_temperature;BMP_pressure;BME280_temperature;BME280_humidity;BME280_pressure;Samples;Min_cycle;Max_cycle;Signal;HPM_P1;HPM_P2
2021/08/27 00:01:25;;;;;;;5.40;1.60;;;14.10;99.90;;;;;;4993107;28;20223;-76
2021/08/27 00:03:52;;;;;;;7.73;1.43;;;14.10;99.90;;;;;;4993621;28;20555;-76
2021/08/27 00:06:18;;;;;;;8.37;1.70;;;14.10;99.90;;;;;;4993750;28;20200;-80
2021/08/27 00:08:46;;;;;;;6.10;1.83;;;14.10;99.90;;;;;;4992944;28;20211;-80
2021/08/27 00:11:14;;;;;;;5.07;1.37;;;14.10;99.90;;;;;;4994272;28;20222;-85
2021/08/27 00:13:41;;;;;;;8.43;1.47;;;14.10;99.90;;;;;;4994140;28;20864;-88
2021/08/27 00:16:08;;;;;;;6.13;1.50;;;14.20;99.90;;;;;;4993935;28;20238;-81
2021/08/27 00:18:34;;;;;;;3.10;1.07;;;14.10;99.90;;;;;;4994411;28;20258;-83
2021/08/27 00:21:01;;;;;;;5.43;1.60;;;14.10;99.90;;;;;;5002546;28;20350;-83
2021/08/27 00:23:28;;;;;;;3.87;1.20;;;14.10;99.90;;;;;;5014015;28;20191;-81
2021/08/27 00:25:56;;;;;;;7.97;1.70;;;14.10;99.90;;;;;;5014362;28;20206;-83
2021/08/27 00:28:23;;;;;;;6.23;1.30;;;14.00;99.90;;;;;;5004520;28;20315;-84
2021/08/27 00:30:50;;;;;;;6.67;1.37;;;14.00;99.90;;;;;;4994300;28;20581;-83
2021/08/27 00:33:17;;;;;;;7.47;1.43;;;14.00;99.90;;;;;;4993340;28;20208;-81
2021/08/27 00:35:43;;;;;;;3.47;1.40;;;14.00;99.90;;;;;;4995531;28;21013;-84
2021/08/27 00:38:14;;;;;;;5.40;1.43;;;14.00;99.90;;;;;;5013184;28;20206;-77
2021/08/27 00:40:41;;;;;;;4.87;1.53;;;14.00;99.90;;;;;;5012227;28;20231;-78
2021/08/27 00:43:11;;;;;;;10.90;1.30;;;14.00;99.90;;;;;;5012458;28;20235;-76
2021/08/27 00:45:38;;;;;;;5.83;1.30;;;14.00;99.90;;;;;;4999258;28;20203;-76
2021/08/27 00:48:06;;;;;;;4.90;1.40;;;14.00;99.90;;;;;;4993500;28;20215;-84
2021/08/27 00:50:33;;;;;;;8.00;1.53;;;14.10;99.90;;;;;;4993459;28;20219;-78
2021/08/27 00:53:00;;;;;;;6.57;1.57;;;14.10;99.90;;;;;;4991770;28;20518;-77
2021/08/27 00:55:27;;;;;;;7.57;1.40;;;14.20;99.90;;;;;;4991453;28;20224;-84
2021/08/27 00:57:54;;;;;;;3.93;1.53;;;14.20;99.90;;;;;;4988737;28;20203;-76
2021/08/27 01:00:23;;;;;;;6.57;1.80;;;14.20;99.90;;;;;;4988442;28;20204;-76
2021/08/27 01:02:50;;;;;;;5.83;1.93;;;14.20;99.90;;;;;;4987358;28;20938;-77
2021/08/27 01:05:17;;;;;;;5.57;1.57;;;14.10;99.90;;;;;;4988578;28;20853;-84
2021/08/27 01:07:51;;;;;;;7.30;2.03;;;14.10;99.90;;;;;;4990683;28;20212;-78
2021/08/27 01:10:22;;;;;;;12.23;1.83;;;14.10;99.90;;;;;;4991602;28;20207;-86
2021/08/27 01:13:00;;;;;;;4.70;1.20;;;14.10;99.90;;;;;;4990163;28;20215;-80
2021/08/27 01:15:37;;;;;;;5.93;1.27;;;14.10;99.90;;;;;;4989854;28;20557;-79
2021/08/27 01:18:11;;;;;;;3.20;1.47;;;14.10;99.90;;;;;;4992055;28;20956;-77
2021/08/27 01:21:16;;;;;;;12.07;1.47;;;14.10;99.90;;;;;;4971246;28;20196;-76
2021/08/27 01:23:46;;;;;;;4.13;1.40;;;14.00;99.90;;;;;;4928988;28;20220;-84
2021/08/27 01:26:16;;;;;;;4.67;1.20;;;14.00;99.90;;;;;;4972097;28;20851;-87
2021/08/27 01:28:49;;;;;;;4.03;1.10;;;14.10;99.90;;;;;;4979144;28;20208;-85
2021/08/27 01:31:24;;;;;;;6.03;1.57;;;14.00;99.90;;;;;;4990585;28;20211;-78
2021/08/27 01:34:04;;;;;;;4.57;1.60;;;14.00;99.90;;;;;;4981923;28;20212;-84
2021/08/27 01:36:35;;;;;;;3.27;1.27;;;14.00;99.90;;;;;;4971425;28;20239;-76
2021/08/27 01:39:04;;;;;;;8.60;2.07;;;14.00;99.90;;;;;;4971389;28;20204;-81
2021/08/27 01:41:33;;;;;;;6.03;1.30;;;13.90;99.90;;;;;;4980071;28;20854;-79
2021/08/27 01:44:04;;;;;;;5.83;1.20;;;13.90;99.90;;;;;;4990930;28;20198;-86
2021/08/27 01:46:32;;;;;;;3.83;1.20;;;13.80;99.90;;;;;;4990962;28;20204;-81
2021/08/27 01:48:59;;;;;;;9.83;1.60;;;13.80;99.90;;;;;;4989339;28;20215;-78
2021/08/27 01:51:27;;;;;;;3.90;1.20;;;13.90;99.90;;;;;;4988240;28;20242;-79
2021/08/27 01:53:56;;;;;;;3.90;1.20;;;13.80;99.90;;;;;;4988636;28;20208;-85
2021/08/27 01:56:24;;;;;;;8.07;1.63;;;13.80;99.90;;;;;;4988687;28;20231;-82
2021/08/27 01:58:51;;;;;;;8.10;1.47;;;13.80;99.90;;;;;;4986471;28;20216;-78
2021/08/27 02:01:18;;;;;;;5.27;1.60;;;13.80;99.90;;;;;;4977315;28;20219;-81
2021/08/27 02:03:47;;;;;;;2.63;1.13;;;13.80;99.90;;;;;;4969372;28;20209;-78
2021/08/27 02:06:15;;;;;;;5.97;1.40;;;13.80;99.90;;;;;;4968772;28;20204;-75
2021/08/27 02:08:42;;;;;;;5.87;1.50;;;13.80;99.90;;;;;;4968965;28;20200;-79
2021/08/27 02:11:11;;;;;;;5.20;1.30;;;13.70;99.90;;;;;;4968622;28;20201;-84
2021/08/27 02:13:39;;;;;;;5.27;1.30;;;13.70;99.90;;;;;;4968259;28;20200;-86
2021/08/27 02:16:06;;;;;;;3.80;1.50;;;13.70;99.90;;;;;;4969063;28;20228;-77
2021/08/27 02:18:34;;;;;;;4.43;1.60;;;13.60;99.90;;;;;;4971591;28;20279;-81
2021/08/27 02:21:02;;;;;;;6.73;1.87;;;13.70;99.90;;;;;;4987000;28;20204;-78
2021/08/27 02:23:29;;;;;;;7.63;2.00;;;13.60;99.90;;;;;;4990598;28;20207;-78
2021/08/27 02:25:58;;;;;;;3.87;1.20;;;13.70;99.90;;;;;;4989668;28;20211;-78
2021/08/27 02:28:27;;;;;;;5.53;1.30;;;13.70;99.90;;;;;;4989692;28;20215;-78
2021/08/27 02:30:56;;;;;;;4.83;1.70;;;13.70;99.90;;;;;;4987530;28;20220;-85
2021/08/27 02:33:26;;;;;;;4.07;1.23;;;13.70;99.90;;;;;;4986430;28;20203;-79
2021/08/27 02:35:54;;;;;;;6.33;1.90;;;13.70;99.90;;;;;;4987237;28;20231;-85
2021/08/27 02:38:24;;;;;;;5.93;1.50;;;13.70;99.90;;;;;;4988763;28;20211;-80
2021/08/27 02:40:51;;;;;;;4.07;1.10;;;13.70;99.90;;;;;;4988082;28;20207;-77
2021/08/27 02:43:18;;;;;;;7.10;1.60;;;13.70;99.90;;;;;;4997205;28;20215;-83
2021/08/27 02:45:46;;;;;;;6.43;1.57;;;13.70;99.90;;;;;;5006986;28;20207;-77
2021/08/27 02:48:13;;;;;;;2.57;1.20;;;13.70;99.90;;;;;;5007631;28;20215;-76
2021/08/27 02:50:43;;;;;;;5.00;1.10;;;13.80;99.90;;;;;;4991143;28;20215;-82
2021/08/27 02:53:14;;;;;;;5.60;1.40;;;13.70;99.90;;;;;;4988328;28;20720;-82
2021/08/27 02:55:46;;;;;;;3.63;1.17;;;13.80;99.90;;;;;;4988373;28;20227;-80
2021/08/27 02:58:17;;;;;;;4.47;1.37;;;13.70;99.90;;;;;;4997728;28;20709;-78
2021/08/27 03:00:54;;;;;;;4.33;1.27;;;13.70;99.90;;;;;;5008196;28;20199;-80
2021/08/27 03:03:24;;;;;;;4.70;1.13;;;13.80;99.90;;;;;;5009557;28;20199;-86
2021/08/27 03:05:56;;;;;;;3.70;1.50;;;13.80;99.90;;;;;;4991086;28;20211;-86
2021/08/27 03:08:25;;;;;;;6.33;1.67;;;13.70;99.90;;;;;;4988296;28;20204;-78
2021/08/27 03:11:00;;;;;;;3.43;1.00;;;13.80;99.90;;;;;;4987986;28;20204;-82
2021/08/27 03:13:34;;;;;;;4.43;1.80;;;13.80;99.90;;;;;;4989317;28;20204;-78
2021/08/27 03:16:05;;;;;;;5.03;1.20;;;13.80;99.90;;;;;;4989011;28;20254;-78
2021/08/27 03:18:38;;;;;;;3.07;1.10;;;13.80;99.90;;;;;;4988907;28;20603;-79
2021/08/27 03:21:12;;;;;;;3.63;1.23;;;13.80;99.90;;;;;;4987719;28;20215;-76
2021/08/27 03:23:41;;;;;;;2.80;1.00;;;13.70;99.90;;;;;;5000219;28;20205;-76
2021/08/27 03:26:15;;;;;;;3.63;1.00;;;13.70;99.90;;;;;;5007116;28;20744;-83
2021/08/27 03:28:46;;;;;;;7.83;2.00;;;13.70;99.90;;;;;;5006658;28;20203;-81
2021/08/27 03:31:14;;;;;;;1.63;0.90;;;13.70;99.90;;;;;;5005455;28;20210;-82
2021/08/27 03:33:42;;;;;;;5.07;1.40;;;13.70;99.90;;;;;;4987880;28;20207;-85
2021/08/27 03:36:09;;;;;;;3.77;1.20;;;13.70;99.90;;;;;;4984698;28;20223;-77
2021/08/27 03:38:38;;;;;;;7.70;1.30;;;13.80;99.90;;;;;;4985357;28;20208;-77
2021/08/27 03:41:06;;;;;;;6.73;1.33;;;13.80;99.90;;;;;;4985895;28;20208;-78
2021/08/27 03:43:33;;;;;;;4.07;1.20;;;13.80;99.90;;;;;;4985447;28;20605;-78
2021/08/27 03:46:01;;;;;;;3.23;1.17;;;13.80;99.90;;;;;;4985755;28;20215;-77
2021/08/27 03:48:31;;;;;;;4.83;1.20;;;13.80;99.90;;;;;;4986946;28;20219;-76
2021/08/27 03:50:58;;;;;;;2.70;1.03;;;13.80;99.90;;;;;;4985077;28;20239;-77
2021/08/27 03:53:27;;;;;;;3.00;1.20;;;13.80;99.90;;;;;;4985938;28;20219;-76
2021/08/27 03:55:55;;;;;;;1.93;0.80;;;13.80;99.90;;;;;;4985260;28;20234;-78
2021/08/27 03:58:24;;;;;;;2.83;0.80;;;13.80;99.90;;;;;;4985300;28;20530;-80
2021/08/27 04:00:52;;;;;;;7.60;1.53;;;13.70;99.90;;;;;;4985446;28;20227;-80
2021/08/27 04:03:20;;;;;;;4.57;0.97;;;13.80;99.90;;;;;;4994538;28;20785;-87
2021/08/27 04:06:03;;;;;;;5.47;1.27;;;13.80;99.90;;;;;;5004763;28;20258;-79
2021/08/27 04:08:31;;;;;;;4.53;0.90;;;13.80;99.90;;;;;;5005558;28;20615;-85
2021/08/27 04:10:58;;;;;;;4.10;1.10;;;13.80;99.90;;;;;;5004356;28;20211;-86
2021/08/27 04:13:25;;;;;;;7.90;1.53;;;13.80;99.90;;;;;;4994122;28;20541;-76
2021/08/27 04:15:52;;;;;;;5.40;1.30;;;13.80;99.90;;;;;;4986640;28;20246;-78
2021/08/27 04:18:19;;;;;;;2.50;0.87;;;13.80;99.90;;;;;;4986738;28;20219;-77
2021/08/27 04:20:46;;;;;;;6.73;1.77;;;13.80;99.90;;;;;;4986494;28;20235;-77
2021/08/27 04:23:14;;;;;;;3.40;1.10;;;13.80;99.90;;;;;;4987235;28;20538;-76
2021/08/27 04:25:41;;;;;;;2.67;1.00;;;13.70;99.90;;;;;;4987539;28;20207;-77
2021/08/27 04:28:08;;;;;;;1.60;1.03;;;13.70;99.90;;;;;;4986366;28;20215;-80
2021/08/27 04:30:35;;;;;;;2.33;1.23;;;13.70;99.90;;;;;;4986750;28;20200;-76
2021/08/27 04:33:02;;;;;;;4.37;1.13;;;13.70;99.90;;;;;;4987158;28;20212;-87
2021/08/27 04:35:29;;;;;;;1.90;0.73;;;13.60;99.90;;;;;;4990414;28;20192;-81
2021/08/27 04:37:56;;;;;;;4.73;1.20;;;13.60;99.90;;;;;;4989247;28;20188;-76
2021/08/27 04:40:25;;;;;;;2.67;0.97;;;13.60;99.90;;;;;;4990792;28;20212;-78
2021/08/27 04:42:52;;;;;;;2.83;1.00;;;13.60;99.90;;;;;;4991729;28;20215;-76
2021/08/27 04:45:18;;;;;;;4.70;1.40;;;13.60;99.90;;;;;;4991139;28;20596;-81
2021/08/27 04:47:45;;;;;;;2.40;1.17;;;13.50;99.90;;;;;;4990077;28;20204;-76
2021/08/27 04:50:13;;;;;;;1.70;0.90;;;13.50;99.90;;;;;;4989798;28;20589;-78
2021/08/27 04:52:40;;;;;;;3.10;1.13;;;13.40;99.90;;;;;;4987453;28;20227;-77
2021/08/27 04:55:08;;;;;;;2.27;1.10;;;13.40;99.90;;;;;;4989590;28;20208;-78
2021/08/27 04:57:39;;;;;;;3.67;1.33;;;13.40;99.90;;;;;;4992271;28;20246;-81
2021/08/27 05:00:08;;;;;;;3.27;1.13;;;13.40;99.90;;;;;;4990355;28;20196;-87
2021/08/27 05:02:36;;;;;;;4.00;1.10;;;13.30;99.90;;;;;;4991416;28;20235;-83
2021/08/27 05:05:03;;;;;;;3.10;0.97;;;13.30;99.90;;;;;;4991606;28;20212;-78
2021/08/27 05:07:30;;;;;;;3.67;1.37;;;13.30;99.90;;;;;;4991469;28;20211;-77
2021/08/27 05:09:57;;;;;;;2.73;1.53;;;13.30;99.90;;;;;;5003596;28;20216;-78
2021/08/27 05:12:23;;;;;;;2.57;1.20;;;13.30;99.90;;;;;;5010048;28;20215;-81
2021/08/27 05:14:52;;;;;;;4.47;1.13;;;13.20;99.90;;;;;;4995943;28;20216;-81
2021/08/27 05:17:18;;;;;;;4.43;1.23;;;13.20;99.90;;;;;;4990550;28;20227;-79
2021/08/27 05:19:45;;;;;;;4.93;1.40;;;13.20;99.90;;;;;;4989879;28;20250;-82
2021/08/27 05:22:12;;;;;;;3.80;1.37;;;13.20;99.90;;;;;;5007672;28;20217;-85
2021/08/27 05:24:38;;;;;;;5.17;1.20;;;13.20;99.90;;;;;;5008958;28;20203;-79
2021/08/27 05:27:05;;;;;;;2.93;1.47;;;13.30;99.90;;;;;;5008713;28;20210;-77
2021/08/27 05:29:32;;;;;;;2.90;1.10;;;13.30;99.90;;;;;;4994571;28;20206;-81
2021/08/27 05:32:00;;;;;;;4.33;1.40;;;13.20;99.90;;;;;;4987055;28;20721;-77
2021/08/27 05:34:27;;;;;;;1.97;1.17;;;13.30;99.90;;;;;;4989359;28;20211;-79
2021/08/27 05:36:54;;;;;;;2.30;1.33;;;13.30;99.90;;;;;;4986232;28;20258;-76
2021/08/27 05:39:27;;;;;;;3.63;1.73;;;13.30;99.90;;;;;;4987776;28;20211;-77
2021/08/27 05:41:54;;;;;;;2.10;1.50;;;13.30;99.90;;;;;;4986901;28;20255;-76
2021/08/27 05:44:21;;;;;;;3.47;1.20;;;13.40;99.90;;;;;;4987091;28;20215;-75
2021/08/27 05:46:48;;;;;;;4.37;1.40;;;13.40;99.90;;;;;;4986295;28;20259;-76
2021/08/27 05:49:16;;;;;;;4.00;1.27;;;13.40;99.90;;;;;;4987430;28;20520;-78
2021/08/27 05:51:43;;;;;;;3.80;1.50;;;13.40;99.90;;;;;;4986480;28;20228;-81
2021/08/27 05:54:10;;;;;;;3.13;1.30;;;13.50;99.90;;;;;;4987319;28;20212;-86
2021/08/27 05:56:37;;;;;;;8.00;1.90;;;13.50;99.90;;;;;;4987052;28;20231;-77
2021/08/27 05:59:04;;;;;;;6.80;1.47;;;13.60;99.90;;;;;;4985766;28;20216;-77
2021/08/27 06:01:31;;;;;;;5.00;1.47;;;13.70;99.90;;;;;;4987141;28;20192;-77
2021/08/27 06:03:57;;;;;;;9.07;1.97;;;13.80;99.90;;;;;;4986131;28;20212;-78
2021/08/27 06:06:25;;;;;;;3.57;1.50;;;13.80;99.90;;;;;;4987332;28;20200;-76
2021/08/27 06:08:53;;;;;;;7.83;2.77;;;13.90;99.90;;;;;;4986518;28;20223;-78
2021/08/27 06:11:20;;;;;;;9.53;1.77;;;14.00;99.90;;;;;;4986956;28;20270;-77
2021/08/27 06:13:46;;;;;;;4.93;1.47;;;14.10;99.90;;;;;;4986082;28;20196;-77
2021/08/27 06:16:13;;;;;;;4.60;1.30;;;14.20;99.90;;;;;;4986889;28;20191;-77
2021/08/27 06:18:41;;;;;;;5.57;1.73;;;14.20;99.90;;;;;;4986793;28;20211;-78
2021/08/27 06:21:08;;;;;;;5.60;1.80;;;14.40;99.90;;;;;;4988092;28;20212;-77
2021/08/27 06:23:36;;;;;;;2.90;1.30;;;14.50;99.90;;;;;;4987435;28;20204;-85
2021/08/27 06:26:03;;;;;;;6.80;1.47;;;14.60;99.90;;;;;;4986452;28;20611;-78
2021/08/27 06:28:30;;;;;;;5.43;1.90;;;14.80;99.90;;;;;;4987797;28;20214;-77
2021/08/27 06:30:56;;;;;;;5.97;1.73;;;14.90;99.90;;;;;;4987991;28;20204;-79
2021/08/27 06:33:23;;;;;;;5.67;1.67;;;15.10;99.90;;;;;;4987587;28;20207;-79
2021/08/27 06:35:50;;;;;;;5.53;2.27;;;15.30;99.90;;;;;;4988620;28;20200;-82
2021/08/27 06:38:22;;;;;;;7.87;1.70;;;15.50;99.90;;;;;;4987534;28;20531;-78
2021/08/27 06:44:16;;;;;;;9.50;2.07;;;15.80;99.90;;;;;;4978003;28;20218;-77
2021/08/27 06:46:43;;;;;;;6.50;1.90;;;16.00;99.90;;;;;;5008012;28;20210;-84
2021/08/27 06:49:11;;;;;;;6.95;2.08;;;16.20;99.90;;;;;;5005014;28;20211;-82
2021/08/27 06:51:38;;;;;;;4.43;1.73;;;16.40;99.90;;;;;;4989264;28;20230;-78
2021/08/27 06:54:05;;;;;;;5.78;1.63;;;16.50;99.90;;;;;;4994595;28;20215;-79
2021/08/27 06:56:31;;;;;;;6.90;2.00;;;16.70;99.90;;;;;;5003131;28;20224;-85
2021/08/27 06:58:58;;;;;;;4.88;1.65;;;16.90;99.90;;;;;;4985369;28;20214;-79
2021/08/27 07:01:27;;;;;;;6.80;2.20;;;17.10;99.90;;;;;;4989987;28;20548;-77
2021/08/27 07:03:54;;;;;;;5.80;2.28;;;17.20;99.90;;;;;;4986742;28;20200;-78
2021/08/27 07:06:23;;;;;;;7.68;3.20;;;17.40;99.90;;;;;;4988760;28;20207;-78
2021/08/27 07:08:49;;;;;;;5.30;2.63;;;17.60;99.90;;;;;;4987646;28;20214;-76
2021/08/27 07:11:16;;;;;;;9.05;3.30;;;17.80;99.90;;;;;;4987565;28;20235;-79
2021/08/27 07:13:43;;;;;;;8.32;2.95;;;17.80;99.90;;;;;;4989545;28;20220;-84
2021/08/27 07:16:10;;;;;;;5.47;2.45;;;17.90;99.90;;;;;;4990081;28;20200;-87
2021/08/27 07:18:39;;;;;;;4.55;2.13;;;18.00;99.90;;;;;;4992532;28;20669;-81
2021/08/27 07:21:07;;;;;;;6.53;2.20;;;17.90;99.90;;;;;;4990242;28;20204;-82
2021/08/27 07:23:34;;;;;;;7.63;2.92;;;17.80;99.90;;;;;;4991178;28;20203;-78
2021/08/27 07:26:01;;;;;;;7.85;2.30;;;17.70;99.90;;;;;;4972979;28;20215;-89
2021/08/27 07:28:28;;;;;;;8.10;3.00;;;17.60;99.90;;;;;;4988293;28;20572;-81
2021/08/27 07:30:54;;;;;;;9.57;3.03;;;17.50;99.90;;;;;;4986775;28;20227;-79
2021/08/27 07:33:21;;;;;;;8.93;3.13;;;17.60;99.90;;;;;;4986922;28;20212;-77
2021/08/27 07:35:50;;;;;;;6.55;2.35;;;17.70;99.90;;;;;;4984958;28;20219;-86
2021/08/27 07:38:17;;;;;;;7.68;2.88;;;17.80;99.90;;;;;;4988732;28;20231;-77
2021/08/27 07:40:43;;;;;;;10.48;2.60;;;17.90;99.90;;;;;;4990094;28;20208;-79
2021/08/27 07:43:11;;;;;;;10.15;2.78;;;18.10;99.90;;;;;;4990710;28;20233;-79
2021/08/27 07:45:38;;;;;;;7.63;3.08;;;18.20;99.90;;;;;;4989141;28;20203;-82
2021/08/27 07:48:05;;;;;;;7.88;2.40;;;18.40;99.90;;;;;;4989231;28;20955;-84
2021/08/27 07:50:32;;;;;;;7.15;2.60;;;18.70;99.90;;;;;;4988876;28;20200;-81
2021/08/27 07:53:00;;;;;;;7.65;2.50;;;19.00;99.90;;;;;;4987209;28;20203;-82
2021/08/27 07:55:26;;;;;;;7.03;2.25;;;19.00;99.90;;;;;;4987983;28;20207;-79
2021/08/27 07:57:53;;;;;;;8.77;2.33;;;18.90;99.90;;;;;;4987414;28;20238;-86
2021/08/27 08:00:20;;;;;;;8.25;3.08;;;18.90;99.90;;;;;;4998195;28;20204;-82
2021/08/27 08:02:47;;;;;;;7.05;2.38;;;18.80;99.90;;;;;;4986336;28;20910;-84
2021/08/27 08:05:14;;;;;;;5.40;2.10;;;18.60;99.90;;;;;;4987355;28;20835;-82
2021/08/27 08:07:40;;;;;;;7.07;2.70;;;18.60;99.90;;;;;;4989975;28;20226;-81
2021/08/27 08:10:10;;;;;;;6.55;2.15;;;18.70;99.90;;;;;;4991456;28;20515;-84
2021/08/27 08:12:37;;;;;;;6.85;2.42;;;18.70;99.90;;;;;;4991235;28;20222;-77
2021/08/27 08:15:04;;;;;;;6.22;2.20;;;18.80;99.90;;;;;;4991516;28;20237;-77
2021/08/27 08:17:31;;;;;;;8.85;3.13;;;19.10;99.90;;;;;;4990247;28;20230;-80
2021/08/27 08:19:58;;;;;;;7.90;2.53;;;19.40;99.90;;;;;;4990959;28;20911;-82
2021/08/27 08:22:24;;;;;;;3.90;1.98;;;19.60;99.90;;;;;;4991145;28;20783;-80
2021/08/27 08:24:51;;;;;;;9.07;2.55;;;19.80;99.90;;;;;;4991794;28;20196;-84
2021/08/27 08:27:20;;;;;;;4.75;2.20;;;20.00;99.90;;;;;;5010447;28;20206;-80
2021/08/27 08:29:46;;;;;;;5.80;2.28;;;20.20;99.90;;;;;;5011011;28;20210;-77
2021/08/27 08:32:13;;;;;;;8.45;2.53;;;20.50;99.90;;;;;;5007437;28;20230;-79
2021/08/27 08:34:40;;;;;;;6.57;2.42;;;20.60;99.90;;;;;;4990919;28;20212;-79
2021/08/27 08:37:08;;;;;;;8.55;2.67;;;20.70;99.90;;;;;;4989857;28;20517;-78
2021/08/27 08:39:35;;;;;;;5.65;2.30;;;20.60;99.90;;;;;;4988660;28;20612;-78
2021/08/27 08:42:02;;;;;;;8.90;3.05;;;20.40;99.90;;;;;;4988833;28;20215;-79
2021/08/27 08:44:31;;;;;;;6.55;2.50;;;20.10;99.90;;;;;;4999342;28;20234;-77
2021/08/27 08:46:59;;;;;;;10.82;3.45;;;19.90;99.90;;;;;;5007086;28;20611;-86
2021/08/27 08:49:29;;;;;;;5.03;2.53;;;19.80;99.90;;;;;;5008389;28;20209;-78
2021/08/27 08:51:58;;;;;;;9.15;2.97;;;19.90;99.90;;;;;;4989638;28;20236;-84
2021/08/27 08:54:25;;;;;;;5.93;3.00;;;20.20;99.90;;;;;;4992467;28;20204;-77
2021/08/27 08:56:52;;;;;;;4.70;2.28;;;20.40;99.90;;;;;;4989811;28;20679;-79
2021/08/27 08:59:19;;;;;;;3.55;1.90;;;20.40;99.90;;;;;;5007018;28;20206;-84
2021/08/27 09:01:47;;;;;;;4.60;2.20;;;20.60;99.90;;;;;;5011509;28;20203;-81
2021/08/27 09:04:14;;;;;;;9.10;3.30;;;20.90;99.90;;;;;;4993156;28;20211;-76
2021/08/27 09:06:41;;;;;;;6.05;2.33;;;21.10;99.90;;;;;;4990068;28;20611;-79
2021/08/27 09:09:08;;;;;;;6.95;2.83;;;21.40;99.90;;;;;;4990602;28;20622;-86
2021/08/27 09:11:35;;;;;;;5.53;1.80;;;21.80;99.90;;;;;;4989400;28;20614;-83
2021/08/27 09:14:03;;;;;;;7.55;2.58;;;22.00;99.90;;;;;;4989695;28;20211;-78
2021/08/27 09:16:33;;;;;;;6.15;2.70;;;22.00;99.90;;;;;;4989663;28;20203;-86
2021/08/27 09:19:02;;;;;;;10.50;2.58;;;21.70;99.90;;;;;;4993704;28;20301;-87
2021/08/27 09:21:30;;;;;;;7.88;2.42;;;21.50;99.90;;;;;;5011110;28;20503;-83
2021/08/27 09:24:15;;;;;;;7.93;2.40;;;21.60;99.90;;;;;;5010193;28;20211;-88
2021/08/27 09:26:43;;;;;;;7.70;2.53;;;21.60;99.90;;;;;;5010370;28;20218;-87
2021/08/27 09:29:11;;;;;;;8.18;2.55;;;21.30;99.90;;;;;;5010168;28;20200;-79
2021/08/27 09:31:39;;;;;;;5.30;2.20;;;21.30;99.90;;;;;;5009954;28;20208;-81
2021/08/27 09:34:07;;;;;;;8.20;2.80;;;21.40;99.90;;;;;;5002917;28;20663;-83
2021/08/27 09:36:35;;;;;;;7.95;2.33;;;21.70;99.90;;;;;;4990162;28;20219;-90
2021/08/27 09:39:06;;;;;;;7.35;2.53;;;21.80;99.90;;;;;;4988017;28;20227;-80
2021/08/27 09:41:34;;;;;;;8.25;2.75;;;22.10;99.90;;;;;;4989100;28;20285;-80
2021/08/27 09:44:02;;;;;;;10.27;2.30;;;22.20;99.90;;;;;;4988386;28;20203;-81
2021/08/27 09:46:32;;;;;;;9.00;2.05;;;22.00;99.90;;;;;;4996723;28;20213;-79
2021/08/27 09:48:59;;;;;;;6.90;2.38;;;21.80;99.90;;;;;;5007031;28;20223;-79
2021/08/27 09:51:44;;;;;;;8.02;2.45;;;21.90;99.90;;;;;;4988816;28;20527;-78
2021/08/27 09:54:21;;;;;;;10.05;2.45;;;22.10;99.90;;;;;;4988745;28;20198;-77
2021/08/27 09:56:51;;;;;;;6.70;2.20;;;22.10;99.90;;;;;;4987813;28;20203;-81
2021/08/27 09:59:18;;;;;;;8.02;2.08;;;21.90;99.90;;;;;;4989462;28;20228;-84
2021/08/27 10:01:47;;;;;;;10.68;2.40;;;21.90;99.90;;;;;;4989170;28;20220;-78
2021/08/27 10:04:14;;;;;;;8.18;2.83;;;21.80;99.90;;;;;;4987426;28;20274;-81
2021/08/27 10:06:42;;;;;;;9.88;2.53;;;21.90;99.90;;;;;;4987994;28;20554;-79
2021/08/27 10:09:09;;;;;;;7.90;2.30;;;21.80;99.90;;;;;;4996193;28;20219;-82
2021/08/27 10:11:36;;;;;;;9.10;3.05;;;21.60;99.90;;;;;;4989169;28;20636;-78
2021/08/27 10:14:04;;;;;;;9.35;2.33;;;21.50;99.90;;;;;;4988600;28;20950;-79
2021/08/27 10:16:31;;;;;;;6.57;2.47;;;21.50;99.90;;;;;;4990681;28;20207;-80
2021/08/27 10:18:59;;;;;;;7.07;2.50;;;21.60;99.90;;;;;;4990816;28;20232;-82
2021/08/27 10:21:26;;;;;;;9.15;3.13;;;21.70;99.90;;;;;;4999041;28;20211;-82
2021/08/27 10:23:54;;;;;;;6.07;2.20;;;21.80;99.90;;;;;;5007578;28;20211;-79
2021/08/27 10:26:23;;;;;;;6.40;2.03;;;21.90;99.90;;;;;;5008587;28;20203;-80
2021/08/27 10:28:52;;;;;;;6.13;1.98;;;21.90;99.90;;;;;;5007929;28;20200;-82
2021/08/27 10:31:19;;;;;;;5.25;2.22;;;21.90;99.90;;;;;;4990112;28;20208;-82
2021/08/27 10:34:07;;;;;;;7.40;2.40;;;22.10;99.90;;;;;;4988266;28;20207;-79
2021/08/27 10:36:48;;;;;;;7.78;2.28;;;22.30;99.90;;;;;;4988700;28;20203;-86
2021/08/27 10:39:36;;;;;;;11.80;2.70;;;22.60;99.90;;;;;;4987745;28;20224;-83
2021/08/27 10:42:04;;;;;;;4.68;2.13;;;22.70;99.90;;;;;;4989787;28;20208;-84
2021/08/27 10:44:49;;;;;;;4.90;2.08;;;22.70;99.90;;;;;;4988583;28;20211;-85
2021/08/27 10:47:17;;;;;;;9.15;2.38;;;22.60;99.90;;;;;;4987789;28;20208;-85
2021/08/27 10:49:56;;;;;;;9.80;2.72;;;22.50;99.90;;;;;;4995979;28;20203;-83
2021/08/27 10:52:27;;;;;;;10.43;2.15;;;22.60;99.90;;;;;;5007664;28;20226;-80
2021/08/27 10:55:21;;;;;;;6.10;2.33;;;22.70;99.90;;;;;;5007057;28;20715;-79
2021/08/27 10:57:56;;;;;;;7.38;2.45;;;22.60;99.90;;;;;;5006152;28;20218;-82
2021/08/27 11:00:35;;;;;;;6.82;2.20;;;22.30;99.90;;;;;;4990117;28;20211;-83
2021/08/27 11:03:03;;;;;;;6.80;2.28;;;22.10;99.90;;;;;;4987356;28;20499;-81
2021/08/27 11:05:37;;;;;;;5.97;2.40;;;21.80;99.90;;;;;;4988154;28;20218;-82
2021/08/27 11:08:06;;;;;;;5.95;2.25;;;21.40;99.90;;;;;;4987668;28;20207;-82
2021/08/27 11:10:37;;;;;;;6.25;2.58;;;21.30;99.90;;;;;;4988111;28;20215;-89
2021/08/27 11:13:10;;;;;;;6.97;2.30;;;21.10;99.90;;;;;;4988244;28;20208;-78
2021/08/27 11:15:38;;;;;;;6.68;2.50;;;21.10;99.90;;;;;;4987704;28;20237;-81
2021/08/27 11:18:25;;;;;;;7.68;2.60;;;20.90;99.90;;;;;;5004887;28;20235;-79
2021/08/27 11:20:54;;;;;;;8.60;2.45;;;20.70;99.90;;;;;;4996875;28;20271;-87
2021/08/27 11:23:21;;;;;;;8.07;2.15;;;20.60;99.90;;;;;;4986567;28;20200;-82
2021/08/27 11:26:03;;;;;;;7.40;2.50;;;20.50;99.90;;;;;;4985850;28;20230;-78
2021/08/27 11:28:32;;;;;;;7.75;2.47;;;20.30;99.90;;;;;;4986025;28;20195;-79
2021/08/27 11:31:04;;;;;;;8.32;2.35;;;20.20;99.90;;;;;;4985575;28;20207;-78
2021/08/27 11:33:49;;;;;;;5.05;2.75;;;20.10;99.90;;;;;;4990369;28;20192;-80
2021/08/27 11:36:18;;;;;;;5.85;2.55;;;19.90;99.90;;;;;;4997349;28;20192;-91
2021/08/27 11:38:50;;;;;;;7.25;2.08;;;19.60;99.90;;;;;;4989036;28;20230;-84
2021/08/27 11:41:19;;;;;;;6.10;1.75;;;19.40;99.90;;;;;;4989055;28;20200;-86
2021/08/27 11:43:47;;;;;;;4.50;1.83;;;19.10;99.90;;;;;;4989573;28;20234;-79
2021/08/27 11:46:18;;;;;;;5.57;2.22;;;19.00;99.90;;;;;;4995345;28;20690;-79
2021/08/27 11:48:50;;;;;;;5.88;2.10;;;19.10;99.90;;;;;;5007289;28;20482;-78
2021/08/27 11:51:18;;;;;;;6.80;2.20;;;19.20;99.90;;;;;;5006860;28;20691;-84
2021/08/27 11:53:44;;;;;;;10.05;2.72;;;19.50;99.90;;;;;;4988664;28;20212;-82
2021/08/27 11:56:15;;;;;;;9.70;2.08;;;19.70;99.90;;;;;;4988808;28;20203;-79
2021/08/27 11:58:46;;;;;;;6.05;1.80;;;20.00;99.90;;;;;;4988338;28;20226;-80
2021/08/27 12:01:24;;;;;;;4.47;1.98;;;20.10;99.90;;;;;;4988882;28;20322;-84
2021/08/27 12:03:51;;;;;;;6.28;1.85;;;20.00;99.90;;;;;;4988592;28;20487;-84
2021/08/27 12:06:21;;;;;;;6.07;2.05;;;19.80;99.90;;;;;;4994528;28;20199;-81
2021/08/27 12:08:48;;;;;;;5.55;1.77;;;19.80;99.90;;;;;;5007308;28;20230;-87
2021/08/27 12:11:16;;;;;;;6.15;1.63;;;19.70;99.90;;;;;;5005683;28;20230;-78
2021/08/27 12:13:56;;;;;;;5.60;1.80;;;19.60;99.90;;;;;;5008587;28;20265;-80
2021/08/27 12:16:23;;;;;;;5.88;2.05;;;19.60;99.90;;;;;;5011702;28;20222;-81
2021/08/27 12:18:52;;;;;;;5.97;1.80;;;19.70;99.90;;;;;;5013460;28;20222;-83
2021/08/27 12:21:24;;;;;;;7.90;1.80;;;19.70;99.90;;;;;;4992755;28;20204;-84
2021/08/27 12:23:59;;;;;;;5.72;1.75;;;19.90;99.90;;;;;;4989804;28;20815;-78
2021/08/27 12:26:28;;;;;;;5.45;1.65;;;20.20;99.90;;;;;;4989634;28;20270;-88
2021/08/27 12:28:56;;;;;;;5.15;1.88;;;20.30;99.90;;;;;;4996837;28;20222;-85
2021/08/27 12:31:23;;;;;;;5.28;1.88;;;20.50;99.90;;;;;;5003943;28;20211;-84
2021/08/27 12:33:50;;;;;;;8.13;2.45;;;20.60;99.90;;;;;;4995745;28;20265;-85
2021/08/27 12:36:18;;;;;;;7.60;2.30;;;20.60;99.90;;;;;;5001258;28;20303;-91
2021/08/27 12:38:45;;;;;;;7.80;2.03;;;20.70;99.90;;;;;;4986938;28;20224;-85
2021/08/27 12:41:14;;;;;;;6.75;2.05;;;20.60;99.90;;;;;;4987281;28;20330;-86
2021/08/27 12:43:40;;;;;;;7.15;1.98;;;20.80;99.90;;;;;;4987537;28;20208;-88
2021/08/27 12:46:09;;;;;;;8.20;2.35;;;20.90;99.90;;;;;;4987138;28;20210;-90
2021/08/27 12:48:36;;;;;;;9.82;2.13;;;21.10;99.90;;;;;;4987339;28;20211;-85
2021/08/27 12:51:05;;;;;;;11.52;2.45;;;21.50;99.90;;;;;;4986527;28;20243;-82
2021/08/27 12:53:34;;;;;;;10.35;2.22;;;21.70;99.90;;;;;;4988478;28;20212;-85
2021/08/27 12:56:12;;;;;;;6.47;1.85;;;21.60;99.90;;;;;;4991480;28;20215;-85
2021/08/27 12:58:40;;;;;;;8.05;1.90;;;21.70;99.90;;;;;;5000932;28;20226;-86